createdAt,value
2019-04-16T00:00:11.806Z,117.42
2019-04-16T00:02:40.144Z,126.85
2019-04-16T00:05:21.264Z,122.75
2019-04-16T00:07:58.871Z,117.72
2019-04-16T00:10:40.624Z,122.85
2019-04-16T00:13:25.242Z,123.10
2019-04-16T00:15:52.187Z,137.28
2019-04-16T00:18:19.536Z,134.50
2019-04-16T00:21:06.502Z,129.10
2019-04-16T00:23:51.017Z,134.72
2019-04-16T00:26:18.414Z,134.70
2019-04-16T00:28:45.498Z,136.20
2019-04-16T00:31:12.448Z,141.55
2019-04-16T00:33:42.659Z,143.87
2019-04-16T00:36:08.275Z,128.93
2019-04-16T00:38:40.987Z,128.62
2019-04-16T00:41:04.090Z,121.20
2019-04-16T00:43:31.043Z,118.90
2019-04-16T00:45:57.987Z,118.85
2019-04-16T00:48:24.848Z,108.15
2019-04-16T00:50:51.794Z,117.25
2019-04-16T00:53:18.778Z,108.27
2019-04-16T00:55:45.859Z,113.32
2019-04-16T00:58:12.854Z,106.15
2019-04-16T01:00:39.782Z,102.62
2019-04-16T01:03:06.891Z,100.05
2019-04-16T01:05:35.284Z,94.32
2019-04-16T01:08:02.679Z,103.27
2019-04-16T01:10:29.575Z,101.80
2019-04-16T01:12:56.762Z,90.45
2019-04-16T01:15:23.805Z,88.67
2019-04-16T01:17:50.589Z,90.97
2019-04-16T01:20:17.531Z,94.03
2019-04-16T01:22:46.871Z,88.10
2019-04-16T01:25:13.579Z,95.75
2019-04-16T01:27:42.257Z,90.67
2019-04-16T01:30:11.324Z,93.47
2019-04-16T01:32:42.390Z,94.83
2019-04-16T01:35:18.806Z,100.15
2019-04-16T01:38:01.302Z,98.50
2019-04-16T01:40:30.090Z,92.78
2019-04-16T01:42:56.918Z,101.02
2019-04-16T01:45:23.810Z,92.02
2019-04-16T01:47:50.642Z,92.97
2019-04-16T01:50:17.518Z,93.30
2019-04-16T01:52:44.270Z,84.17
2019-04-16T01:55:11.406Z,95.22
2019-04-16T01:57:38.464Z,99.77
2019-04-16T02:00:08.573Z,88.42
2019-04-16T02:02:35.746Z,96.85
2019-04-16T02:05:04.922Z,97.00
2019-04-16T02:07:31.821Z,94.40
2019-04-16T02:09:58.928Z,92.30
2019-04-16T02:12:25.790Z,96.57
2019-04-16T02:14:52.810Z,97.00
2019-04-16T02:17:19.809Z,93.00
2019-04-16T02:19:46.565Z,88.55
2019-04-16T02:22:14.077Z,88.07
2019-04-16T02:24:41.176Z,92.40
2019-04-16T02:27:08.008Z,83.95
2019-04-16T02:29:35.064Z,87.70
2019-04-16T02:32:02.062Z,83.00
2019-04-16T02:34:29.065Z,84.40
2019-04-16T02:37:00.625Z,80.95
2019-04-16T02:39:38.701Z,83.72
2019-04-16T02:41:57.414Z,74.12
2019-04-16T02:44:22.308Z,80.85
2019-04-16T02:46:49.365Z,85.62
2019-04-16T02:49:16.264Z,76.12
2019-04-16T02:51:45.159Z,76.07
2019-04-16T02:54:14.198Z,81.47
2019-04-16T02:56:53.087Z,85.30
2019-04-16T02:59:22.478Z,79.55
2019-04-16T03:02:10.691Z,74.17
2019-04-16T03:04:39.936Z,71.60
2019-04-16T03:07:06.884Z,70.77
2019-04-16T03:09:33.837Z,72.65
2019-04-16T03:12:00.758Z,78.70
2019-04-16T03:14:30.064Z,78.78
2019-04-16T03:17:01.584Z,81.45
2019-04-16T03:19:39.334Z,76.67
2019-04-16T03:22:06.209Z,81.63
2019-04-16T03:24:32.933Z,76.95
2019-04-16T03:27:00.000Z,79.00
2019-04-16T03:29:30.107Z,77.60
2019-04-16T03:31:58.338Z,83.00
2019-04-16T03:34:24.851Z,86.02
2019-04-16T03:36:51.723Z,78.17
2019-04-16T03:39:18.568Z,84.32
2019-04-16T03:41:45.519Z,84.32
2019-04-16T03:44:12.566Z,92.60
2019-04-16T03:46:40.221Z,90.40
2019-04-16T03:49:07.284Z,99.77
2019-04-16T03:51:35.586Z,82.33
2019-04-16T03:54:04.883Z,84.37
2019-04-16T03:56:31.852Z,88.10
2019-04-16T03:58:58.741Z,87.25
2019-04-16T04:01:25.711Z,89.45
2019-04-16T04:03:54.426Z,83.30
2019-04-16T04:06:21.744Z,83.50
2019-04-16T04:08:52.860Z,97.40
2019-04-16T04:11:17.703Z,97.65
2019-04-16T04:13:49.722Z,91.50
2019-04-16T04:16:13.337Z,95.72
2019-04-16T04:18:42.858Z,98.80
2019-04-16T04:21:09.248Z,100.33
2019-04-16T04:23:36.063Z,96.28
2019-04-16T04:26:05.528Z,98.45
2019-04-16T04:28:31.916Z,95.32
2019-04-16T04:31:01.028Z,97.78
2019-04-16T04:33:41.897Z,98.47
2019-04-16T04:36:10.353Z,93.75
2019-04-16T04:38:38.465Z,83.67
2019-04-16T04:41:06.046Z,90.25
2019-04-16T04:43:32.889Z,90.40
2019-04-16T04:46:00.025Z,85.85
2019-04-16T04:48:27.133Z,82.88
2019-04-16T04:50:53.989Z,78.12
2019-04-16T04:53:20.927Z,81.78
2019-04-16T04:55:47.835Z,82.50
2019-04-16T04:58:14.609Z,84.70
2019-04-16T05:00:41.761Z,77.87
2019-04-16T05:03:12.407Z,78.95
2019-04-16T05:05:46.635Z,90.22
2019-04-16T05:08:13.469Z,80.42
2019-04-16T05:10:43.260Z,79.37
2019-04-16T05:13:09.246Z,82.45
2019-04-16T05:15:36.207Z,88.10
2019-04-16T05:18:05.783Z,94.77
2019-04-16T05:20:32.809Z,85.17
2019-04-16T05:22:59.731Z,90.57
2019-04-16T05:25:27.052Z,93.40
2019-04-16T05:27:54.005Z,81.40
2019-04-16T05:30:22.150Z,87.85
2019-04-16T05:32:49.169Z,92.72
2019-04-16T05:35:16.162Z,86.50
2019-04-16T05:37:43.027Z,79.47
2019-04-16T05:40:10.566Z,81.00
2019-04-16T05:42:37.603Z,78.35
2019-04-16T05:45:06.408Z,78.60
2019-04-16T05:47:33.451Z,80.03
2019-04-16T05:50:00.321Z,71.17
2019-04-16T05:52:27.074Z,68.62
2019-04-16T05:55:01.724Z,70.30
2019-04-16T05:57:34.698Z,66.92
2019-04-16T06:00:03.256Z,67.95
2019-04-16T06:02:38.741Z,69.80
2019-04-16T06:05:05.826Z,71.85
2019-04-16T06:07:37.777Z,66.17
2019-04-16T06:10:01.759Z,66.17
2019-04-16T06:12:33.732Z,67.40
2019-04-16T06:15:02.985Z,69.45
2019-04-16T06:17:32.918Z,63.25
2019-04-16T06:22:43.279Z,63.75
2019-04-16T06:25:27.566Z,67.25
2019-04-16T06:27:59.893Z,70.08
2019-04-16T06:30:32.994Z,58.68
2019-04-16T06:32:59.832Z,60.28
2019-04-16T06:35:42.518Z,65.03
2019-04-16T06:38:21.271Z,64.53
2019-04-16T06:41:04.014Z,63.95
2019-04-16T06:43:51.874Z,63.75
2019-04-16T06:46:21.049Z,66.60
2019-04-16T06:48:50.575Z,69.57
2019-04-16T06:51:31.921Z,69.53
2019-04-16T06:54:00.963Z,65.12
2019-04-16T06:56:46.103Z,67.80
2019-04-16T06:59:30.473Z,65.65
2019-04-16T07:01:57.970Z,66.57
2019-04-16T07:04:35.903Z,64.63
2019-04-16T07:07:13.585Z,63.63
2019-04-16T07:09:45.551Z,66.12
2019-04-16T07:12:15.728Z,62.30
2019-04-16T07:14:45.510Z,61.50
2019-04-16T07:17:11.540Z,58.85
2019-04-16T07:19:39.463Z,63.20
2019-04-16T07:22:07.460Z,60.55
2019-04-16T07:24:36.601Z,60.20
2019-04-16T07:27:03.318Z,55.23
2019-04-16T07:29:37.999Z,59.25
2019-04-16T07:32:23.841Z,56.18
2019-04-16T07:35:09.392Z,56.25
2019-04-16T07:37:47.878Z,52.27
2019-04-16T07:40:33.438Z,53.20
2019-04-16T07:43:18.897Z,58.23
2019-04-16T07:45:47.662Z,50.08
2019-04-16T07:48:16.773Z,53.65
2019-04-16T07:50:45.916Z,53.87
2019-04-16T07:53:15.139Z,47.77
2019-04-16T07:55:46.991Z,51.45
2019-04-16T07:58:13.977Z,51.70
2019-04-16T08:00:41.598Z,50.45
2019-04-16T08:03:08.884Z,54.00
2019-04-16T08:05:37.708Z,38.05
2019-04-16T08:08:05.388Z,42.27
2019-04-16T08:10:32.398Z,43.83
2019-04-16T08:13:01.884Z,39.30
2019-04-16T08:15:30.187Z,40.65
2019-04-16T08:17:57.301Z,36.93
2019-04-16T08:20:24.366Z,37.65
2019-04-16T08:22:53.201Z,32.63
2019-04-16T08:25:33.565Z,36.30
2019-04-16T08:27:56.690Z,38.85
2019-04-16T08:30:23.535Z,32.10
2019-04-16T08:32:50.457Z,27.30
2019-04-16T08:35:17.791Z,24.20
2019-04-16T08:37:49.231Z,22.20
2019-04-16T08:40:13.566Z,19.75
2019-04-16T08:42:44.861Z,17.98
2019-04-16T08:45:11.120Z,16.85
2019-04-16T08:47:38.144Z,17.98
2019-04-16T08:50:05.507Z,15.38
2019-04-16T08:52:33.158Z,12.68
2019-04-16T08:55:00.214Z,12.07
2019-04-16T08:57:31.802Z,10.15
2019-04-16T08:59:56.554Z,10.43
2019-04-16T09:02:27.076Z,15.72
2019-04-16T09:04:53.154Z,12.85
2019-04-16T09:07:38.534Z,13.22
2019-04-16T09:10:17.244Z,19.80
2019-04-16T09:12:43.413Z,13.78
2019-04-16T09:15:09.018Z,12.23
2019-04-16T09:21:03.569Z,13.05
2019-04-16T09:23:30.622Z,15.95
2019-04-16T09:26:14.006Z,14.30
2019-04-16T09:28:36.101Z,10.03
2019-04-16T09:31:05.888Z,15.27
2019-04-16T09:33:53.549Z,13.00
2019-04-16T09:36:38.365Z,10.08
2019-04-16T09:39:25.356Z,11.68
2019-04-16T09:41:53.668Z,14.23
2019-04-16T09:44:20.597Z,10.65
2019-04-16T09:46:51.246Z,14.23
2019-04-16T09:49:16.368Z,10.25
2019-04-16T09:51:43.385Z,8.70
2019-04-16T09:54:13.450Z,7.78
2019-04-16T09:56:39.542Z,11.63
2019-04-16T09:59:10.975Z,9.45
2019-04-16T10:01:39.993Z,19.07
2019-04-16T10:04:08.756Z,18.00
2019-04-16T10:06:36.290Z,11.60
2019-04-16T10:09:05.355Z,19.62
2019-04-16T10:11:32.703Z,12.43
2019-04-16T10:14:01.370Z,14.30
2019-04-16T10:16:29.682Z,13.03
2019-04-16T10:18:56.714Z,12.23
2019-04-16T10:21:28.206Z,9.60
2019-04-16T10:23:55.772Z,10.50
2019-04-16T10:26:22.691Z,14.35
2019-04-16T10:28:49.709Z,10.53
2019-04-16T10:31:19.350Z,10.05
2019-04-16T10:33:46.649Z,9.70
2019-04-16T10:36:13.779Z,13.90
2019-04-16T10:38:50.012Z,11.60
2019-04-16T10:41:22.069Z,20.70
2019-04-16T10:43:51.351Z,12.98
2019-04-16T10:46:35.642Z,19.98
2019-04-16T10:49:13.870Z,9.53
2019-04-16T10:51:48.374Z,11.83
2019-04-16T10:54:33.693Z,10.23
2019-04-16T10:57:15.529Z,8.85
2019-04-16T10:59:45.122Z,14.53
2019-04-16T11:02:20.073Z,13.80
2019-04-16T11:04:48.876Z,8.85
2019-04-16T11:07:18.734Z,7.45
2019-04-16T11:09:45.517Z,10.65
2019-04-16T11:12:12.788Z,37.25
2019-04-16T11:14:39.917Z,7.58
2019-04-16T11:17:09.126Z,9.25
2019-04-16T11:19:35.990Z,12.82
2019-04-16T11:22:05.017Z,10.55
2019-04-16T11:24:32.439Z,8.13
2019-04-16T11:26:59.359Z,9.98
2019-04-16T11:29:26.486Z,10.30
2019-04-16T11:31:53.453Z,16.25
2019-04-16T11:34:20.787Z,9.50
2019-04-16T11:36:47.655Z,22.45
2019-04-16T11:39:14.970Z,7.45
2019-04-16T11:41:41.932Z,8.88
2019-04-16T11:44:15.474Z,11.15
2019-04-16T11:46:38.042Z,9.73
2019-04-16T11:49:05.121Z,7.08
2019-04-16T11:51:33.740Z,12.95
2019-04-16T11:54:00.796Z,6.90
2019-04-16T11:56:27.805Z,8.70
2019-04-16T11:58:57.421Z,8.90
2019-04-16T12:01:25.735Z,12.73
2019-04-16T12:04:06.877Z,9.78
2019-04-16T12:06:52.603Z,18.07
2019-04-16T12:09:38.120Z,10.93
2019-04-16T12:12:10.709Z,7.97
2019-04-16T12:14:56.179Z,13.18
2019-04-16T12:17:25.419Z,12.18
2019-04-16T12:20:09.591Z,12.10
2019-04-16T12:22:54.836Z,8.25
2019-04-16T12:25:30.124Z,9.70
2019-04-16T12:28:01.921Z,9.70
2019-04-16T12:30:33.350Z,9.85
2019-04-16T12:33:14.011Z,9.73
2019-04-16T12:38:17.805Z,10.38
2019-04-16T12:40:55.967Z,9.88
2019-04-16T12:43:31.118Z,9.58
2019-04-16T12:46:00.156Z,10.45
2019-04-16T12:48:47.276Z,9.78
2019-04-16T12:51:22.544Z,8.15
2019-04-16T12:53:54.069Z,10.00
2019-04-16T12:56:41.031Z,9.00
2019-04-16T12:59:22.150Z,8.65
2019-04-16T13:02:00.759Z,12.05
2019-04-16T13:04:48.719Z,9.20
2019-04-16T13:07:26.863Z,7.58
2019-04-16T13:10:07.758Z,10.00
2019-04-16T13:12:46.102Z,9.25
2019-04-16T13:15:32.290Z,15.25
2019-04-16T13:18:13.417Z,14.28
2019-04-16T13:21:03.925Z,9.38
2019-04-16T13:23:36.168Z,9.40
2019-04-16T13:26:05.576Z,9.38
2019-04-16T13:28:32.447Z,11.78
2019-04-16T13:30:59.323Z,11.63
2019-04-16T13:33:26.222Z,10.18
2019-04-16T13:35:53.253Z,14.25
2019-04-16T13:38:23.474Z,8.38
2019-04-16T13:40:53.263Z,7.75
2019-04-16T13:43:21.293Z,10.45
2019-04-16T13:45:49.575Z,7.97
2019-04-16T13:48:21.590Z,16.57
2019-04-16T13:50:50.232Z,7.60
2019-04-16T13:53:34.609Z,15.55
2019-04-16T13:56:20.388Z,12.88
2019-04-16T13:58:49.607Z,10.85
2019-04-16T14:01:24.637Z,11.20
2019-04-16T14:03:56.090Z,7.70
2019-04-16T14:06:20.489Z,9.37
2019-04-16T14:08:47.525Z,12.60
2019-04-16T14:11:16.589Z,8.18
2019-04-16T14:13:45.000Z,11.95
2019-04-16T14:16:13.723Z,11.85
2019-04-16T14:18:40.767Z,8.93
2019-04-16T14:21:07.998Z,11.60
2019-04-16T14:23:34.969Z,13.40
2019-04-16T14:26:01.845Z,10.95
2019-04-16T14:28:33.810Z,9.35
2019-04-16T14:30:58.006Z,14.55
2019-04-16T14:33:26.805Z,8.75
2019-04-16T14:35:54.396Z,11.03
2019-04-16T14:38:26.035Z,9.58
2019-04-16T14:40:53.025Z,17.57
2019-04-16T14:43:21.869Z,7.30
2019-04-16T14:45:58.011Z,10.20
2019-04-16T14:48:18.875Z,6.62
2019-04-16T14:50:45.768Z,10.75
2019-04-16T14:53:14.782Z,8.90
2019-04-16T14:55:59.277Z,7.85
2019-04-16T14:58:17.966Z,9.25
2019-04-16T15:01:05.187Z,8.15
2019-04-16T15:03:43.282Z,9.80
2019-04-16T15:06:11.285Z,6.80
2019-04-16T15:08:40.907Z,7.37
2019-04-16T15:11:09.751Z,6.37
2019-04-16T15:13:44.639Z,12.23
2019-04-16T15:16:22.207Z,5.80
2019-04-16T15:18:50.668Z,6.05
2019-04-16T15:21:28.743Z,9.65
2019-04-16T15:24:12.517Z,9.23
2019-04-16T15:26:56.575Z,10.98
2019-04-16T15:29:25.676Z,8.75
2019-04-16T15:31:57.797Z,8.08
2019-04-16T15:34:29.497Z,8.33
2019-04-16T15:37:01.441Z,14.53
2019-04-16T15:39:36.448Z,15.32
2019-04-16T15:42:16.344Z,17.27
2019-04-16T15:44:46.654Z,12.00
2019-04-16T15:47:21.575Z,12.23
2019-04-16T15:49:57.110Z,7.95
2019-04-16T15:52:31.107Z,7.80
2019-04-16T15:55:06.399Z,10.00
2019-04-16T15:57:51.696Z,7.00
2019-04-16T16:00:37.574Z,14.35
2019-04-16T16:03:06.677Z,12.43
2019-04-16T16:05:50.888Z,14.60
2019-04-16T16:08:29.827Z,24.57
2019-04-16T16:10:58.747Z,7.97
2019-04-16T16:13:27.254Z,7.97
2019-04-16T16:15:54.202Z,9.48
2019-04-16T16:18:21.247Z,10.95
2019-04-16T16:20:48.166Z,8.05
2019-04-16T16:23:15.391Z,8.53
2019-04-16T16:25:42.546Z,11.08
2019-04-16T16:28:09.713Z,13.70
2019-04-16T16:30:36.738Z,32.73
2019-04-16T16:33:03.782Z,7.42
2019-04-16T16:35:34.767Z,13.28
2019-04-16T16:38:00.992Z,6.87
2019-04-16T16:40:28.189Z,9.95
2019-04-16T16:42:55.201Z,11.83
2019-04-16T16:45:24.336Z,8.33
2019-04-16T16:47:51.592Z,9.88
2019-04-16T16:50:18.908Z,6.70
2019-04-16T16:53:03.474Z,5.12
2019-04-16T16:55:32.712Z,8.23
2019-04-16T16:58:01.994Z,11.50
2019-04-16T17:00:37.247Z,6.60
2019-04-16T17:03:10.035Z,6.87
2019-04-16T17:05:37.476Z,12.20
2019-04-16T17:08:05.836Z,7.40
2019-04-16T17:10:33.217Z,5.62
2019-04-16T17:13:00.110Z,8.88
2019-04-16T17:15:27.080Z,10.30
2019-04-16T17:17:54.063Z,7.00
2019-04-16T17:20:22.140Z,8.63
2019-04-16T17:22:49.130Z,11.15
2019-04-16T17:25:16.279Z,21.37
2019-04-16T17:27:51.207Z,14.35
2019-04-16T17:37:28.960Z,9.85
2019-04-16T17:39:58.451Z,16.10
2019-04-16T17:42:28.279Z,11.22
2019-04-16T17:45:12.965Z,9.08
2019-04-16T17:47:58.320Z,14.60
2019-04-16T17:50:27.424Z,17.55
2019-04-16T17:53:15.831Z,19.45
2019-04-16T17:56:02.447Z,18.67
2019-04-16T17:58:37.835Z,15.70
2019-04-16T18:01:10.164Z,15.48
2019-04-16T18:03:38.622Z,13.90
2019-04-16T18:09:13.823Z,18.75
2019-04-16T18:11:44.794Z,27.25
2019-04-16T18:14:30.117Z,33.88
2019-04-16T18:17:14.528Z,20.95
2019-04-16T18:19:46.576Z,16.20
2019-04-16T18:22:28.162Z,16.00
2019-04-16T18:25:05.869Z,15.78
2019-04-16T18:27:38.083Z,16.62
2019-04-16T18:30:23.777Z,15.45
2019-04-16T18:33:05.670Z,17.52
2019-04-16T18:35:33.376Z,15.88
2019-04-16T18:38:22.267Z,16.65
2019-04-16T18:41:03.635Z,19.50
2019-04-16T18:43:33.747Z,16.35
2019-04-16T18:46:15.255Z,17.32
2019-04-16T18:48:45.476Z,15.85
2019-04-16T18:51:12.593Z,16.62
2019-04-16T18:53:40.230Z,14.95
2019-04-16T18:56:08.614Z,16.57
2019-04-16T18:58:35.675Z,14.15
2019-04-16T19:01:05.107Z,13.95
2019-04-16T19:03:32.078Z,16.67
2019-04-16T19:05:58.963Z,17.65
2019-04-16T19:08:40.475Z,15.55
2019-04-16T19:10:54.992Z,15.70
2019-04-16T19:13:23.173Z,16.07
2019-04-16T19:15:50.370Z,19.05
2019-04-16T19:18:20.048Z,17.23
2019-04-16T19:20:51.497Z,16.87
2019-04-16T19:23:16.110Z,14.83
2019-04-16T19:25:43.465Z,14.00
2019-04-16T19:28:10.532Z,12.90
2019-04-16T19:30:38.090Z,14.90
2019-04-16T19:33:05.201Z,12.30
2019-04-16T19:35:32.122Z,11.75
2019-04-16T19:38:02.316Z,10.95
2019-04-16T19:40:28.688Z,11.07
2019-04-16T19:42:57.829Z,11.85
2019-04-16T19:45:25.879Z,8.88
2019-04-16T19:47:52.897Z,10.00
2019-04-16T19:50:19.900Z,11.73
2019-04-16T19:52:47.712Z,10.15
2019-04-16T19:55:15.897Z,9.38
2019-04-16T19:57:43.379Z,8.70
2019-04-16T20:00:10.886Z,8.88
2019-04-16T20:02:38.206Z,8.40
2019-04-16T20:05:06.057Z,7.85
2019-04-16T20:07:33.647Z,7.70
2019-04-16T20:10:00.921Z,10.65
2019-04-16T20:12:28.813Z,10.10
2019-04-16T20:14:56.182Z,9.03
2019-04-16T20:17:23.433Z,10.78
2019-04-16T20:20:00.291Z,13.75
2019-04-16T20:22:30.118Z,11.48
2019-04-16T20:24:57.732Z,11.05
2019-04-16T20:27:25.248Z,12.75
2019-04-16T20:29:53.270Z,13.48
2019-04-16T20:32:20.710Z,14.95
2019-04-16T20:34:47.752Z,12.13
2019-04-16T20:37:14.779Z,12.35
2019-04-16T20:39:41.975Z,12.00
2019-04-16T20:42:09.050Z,11.03
2019-04-16T20:44:35.932Z,10.48
2019-04-16T20:47:07.718Z,8.73
2019-04-16T20:49:31.870Z,8.50
2019-04-16T20:52:00.627Z,9.85
2019-04-16T20:54:30.092Z,8.58
2019-04-16T20:56:57.119Z,10.28
2019-04-16T20:59:24.031Z,10.13
2019-04-16T21:01:51.037Z,9.93
2019-04-16T21:04:17.835Z,11.33
2019-04-16T21:06:44.775Z,10.98
2019-04-16T21:09:11.764Z,10.45
2019-04-16T21:11:41.184Z,10.10
2019-04-16T21:14:07.483Z,11.12
2019-04-16T21:16:34.715Z,10.38
2019-04-16T21:19:01.837Z,10.00
2019-04-16T21:21:28.956Z,11.33
2019-04-16T21:23:55.867Z,9.40
2019-04-16T21:26:24.313Z,10.72
2019-04-16T21:28:53.293Z,11.45
2019-04-16T21:31:22.473Z,8.77
2019-04-16T21:33:57.638Z,11.78
2019-04-16T21:36:38.533Z,9.15
2019-04-16T21:39:08.650Z,9.53
2019-04-16T21:44:03.003Z,9.75
2019-04-16T21:46:30.183Z,11.05
2019-04-16T21:48:59.748Z,10.82
2019-04-16T21:51:27.263Z,12.18
2019-04-16T21:53:57.401Z,10.58
2019-04-16T21:56:22.969Z,10.25
2019-04-16T21:58:50.426Z,11.50
2019-04-16T22:01:19.711Z,12.20
2019-04-16T22:03:48.857Z,11.63
2019-04-16T22:06:19.765Z,12.82
2019-04-16T22:08:44.745Z,11.20
2019-04-16T22:11:12.600Z,12.68
2019-04-16T22:13:41.371Z,11.73
2019-04-16T22:16:08.414Z,11.28
2019-04-16T22:18:37.575Z,12.28
2019-04-16T22:21:09.506Z,12.98
2019-04-16T22:23:34.817Z,13.00
2019-04-16T22:26:03.009Z,13.40
2019-04-16T22:28:30.513Z,13.95
2019-04-16T22:30:58.093Z,13.58
2019-04-16T22:33:24.974Z,14.05
2019-04-16T22:35:52.036Z,14.87
2019-04-16T22:38:18.968Z,12.93
2019-04-16T22:40:51.545Z,15.98
2019-04-16T22:43:39.681Z,14.03
2019-04-16T22:46:23.471Z,15.93
2019-04-16T22:48:54.289Z,19.40
2019-04-16T22:51:22.067Z,29.07
2019-04-16T22:53:49.535Z,26.02
2019-04-16T22:56:17.529Z,21.57
2019-04-16T22:58:48.359Z,19.02
2019-04-16T23:01:16.029Z,19.67
2019-04-16T23:03:43.060Z,16.35
2019-04-16T23:06:09.971Z,18.87
2019-04-16T23:08:37.483Z,23.65
2019-04-16T23:11:04.949Z,18.02
2019-04-16T23:13:32.673Z,18.75
2019-04-16T23:16:00.318Z,24.05
2019-04-16T23:18:27.615Z,24.32
2019-04-16T23:20:54.546Z,20.55
2019-04-16T23:23:21.474Z,21.12
2019-04-16T23:25:48.264Z,21.50
2019-04-16T23:28:15.045Z,26.30
2019-04-16T23:30:42.049Z,22.60
2019-04-16T23:33:09.251Z,24.10
2019-04-16T23:35:36.063Z,22.07
2019-04-16T23:38:03.163Z,21.93
2019-04-16T23:40:30.161Z,20.30
2019-04-16T23:42:59.081Z,24.30
2019-04-16T23:45:31.107Z,20.48
2019-04-16T23:48:05.332Z,24.52
2019-04-16T23:50:53.185Z,23.00
2019-04-16T23:53:24.988Z,22.42
2019-04-16T23:55:53.901Z,23.47
2019-04-16T23:58:28.510Z,24.27
